sensor_id;sensor_type;location;lat;lon;timestamp;temperature;humidity
32522;DHT22;18963;51.504;5.316;2022-09-03T00:00:48;16.00;67.50
32522;DHT22;18963;51.504;5.316;2022-09-03T00:03:17;16.00;68.00
32522;DHT22;18963;51.504;5.316;2022-09-03T00:08:18;15.90;68.90
32522;DHT22;18963;51.504;5.316;2022-09-03T00:10:50;15.80;69.00
32522;DHT22;18963;51.504;5.316;2022-09-03T00:13:31;15.80;69.20
32522;DHT22;18963;51.504;5.316;2022-09-03T00:15:57;15.80;69.60
32522;DHT22;18963;51.504;5.316;2022-09-03T00:18:26;15.80;69.70
32522;DHT22;18963;51.504;5.316;2022-09-03T00:20:53;15.80;69.90
32522;DHT22;18963;51.504;5.316;2022-09-03T00:23:26;15.80;70.30
32522;DHT22;18963;51.504;5.316;2022-09-03T00:25:54;15.70;70.70
32522;DHT22;18963;51.504;5.316;2022-09-03T00:28:25;15.60;71.00
32522;DHT22;18963;51.504;5.316;2022-09-03T00:30:55;15.60;71.30
32522;DHT22;18963;51.504;5.316;2022-09-03T00:33:23;15.60;71.30
32522;DHT22;18963;51.504;5.316;2022-09-03T00:36:01;15.60;71.50
32522;DHT22;18963;51.504;5.316;2022-09-03T00:38:29;15.60;71.70
32522;DHT22;18963;51.504;5.316;2022-09-03T00:41:09;15.60;71.90
32522;DHT22;18963;51.504;5.316;2022-09-03T00:49:42;15.50;72.30
32522;DHT22;18963;51.504;5.316;2022-09-03T00:51:58;15.50;72.60
32522;DHT22;18963;51.504;5.316;2022-09-03T00:54:29;15.50;72.90
32522;DHT22;18963;51.504;5.316;2022-09-03T01:02:11;15.40;73.50
32522;DHT22;18963;51.504;5.316;2022-09-03T01:09:51;15.20;74.70
32522;DHT22;18963;51.504;5.316;2022-09-03T01:12:21;15.20;75.10
32522;DHT22;18963;51.504;5.316;2022-09-03T01:17:20;15.20;75.90
32522;DHT22;18963;51.504;5.316;2022-09-03T01:19:56;15.20;76.10
32522;DHT22;18963;51.504;5.316;2022-09-03T01:22:30;15.20;76.40
32522;DHT22;18963;51.504;5.316;2022-09-03T01:27:45;15.20;76.80
32522;DHT22;18963;51.504;5.316;2022-09-03T01:30:13;15.10;77.00
32522;DHT22;18963;51.504;5.316;2022-09-03T01:32:50;15.10;77.20
32522;DHT22;18963;51.504;5.316;2022-09-03T01:50:32;14.90;79.20
32522;DHT22;18963;51.504;5.316;2022-09-03T01:57:59;14.80;80.90
32522;DHT22;18963;51.504;5.316;2022-09-03T02:00:26;14.80;80.70
32522;DHT22;18963;51.504;5.316;2022-09-03T02:02:54;14.80;81.10
32522;DHT22;18963;51.504;5.316;2022-09-03T02:05:21;14.80;81.00
32522;DHT22;18963;51.504;5.316;2022-09-03T02:07:55;14.80;81.10
32522;DHT22;18963;51.504;5.316;2022-09-03T02:10:21;14.80;81.20
32522;DHT22;18963;51.504;5.316;2022-09-03T02:12:52;14.80;81.20
32522;DHT22;18963;51.504;5.316;2022-09-03T02:15:20;14.80;81.20
32522;DHT22;18963;51.504;5.316;2022-09-03T02:17:47;14.90;81.40
32522;DHT22;18963;51.504;5.316;2022-09-03T02:20:21;14.90;81.10
32522;DHT22;18963;51.504;5.316;2022-09-03T02:22:47;14.90;81.30
32522;DHT22;18963;51.504;5.316;2022-09-03T02:25:13;14.90;81.30
32522;DHT22;18963;51.504;5.316;2022-09-03T02:27:38;14.80;81.70
32522;DHT22;18963;51.504;5.316;2022-09-03T02:30:04;14.80;82.00
32522;DHT22;18963;51.504;5.316;2022-09-03T02:32:31;14.80;82.20
32522;DHT22;18963;51.504;5.316;2022-09-03T02:34:57;14.80;82.50
32522;DHT22;18963;51.504;5.316;2022-09-03T02:37:22;14.70;82.40
32522;DHT22;18963;51.504;5.316;2022-09-03T02:39:48;14.70;82.40
32522;DHT22;18963;51.504;5.316;2022-09-03T02:42:15;14.80;82.70
32522;DHT22;18963;51.504;5.316;2022-09-03T02:44:43;14.70;82.60
32522;DHT22;18963;51.504;5.316;2022-09-03T02:47:10;14.80;82.40
32522;DHT22;18963;51.504;5.316;2022-09-03T02:49:36;14.80;82.50
32522;DHT22;18963;51.504;5.316;2022-09-03T02:52:03;14.70;82.60
32522;DHT22;18963;51.504;5.316;2022-09-03T02:54:34;14.80;82.90
32522;DHT22;18963;51.504;5.316;2022-09-03T02:57:07;14.70;82.90
32522;DHT22;18963;51.504;5.316;2022-09-03T02:59:33;14.70;83.10
32522;DHT22;18963;51.504;5.316;2022-09-03T03:01:58;14.70;83.20
32522;DHT22;18963;51.504;5.316;2022-09-03T03:04:24;14.70;83.20
32522;DHT22;18963;51.504;5.316;2022-09-03T03:06:49;14.70;83.10
32522;DHT22;18963;51.504;5.316;2022-09-03T03:09:15;14.80;83.30
32522;DHT22;18963;51.504;5.316;2022-09-03T03:11:41;14.80;83.20
32522;DHT22;18963;51.504;5.316;2022-09-03T03:14:06;14.80;82.80
32522;DHT22;18963;51.504;5.316;2022-09-03T03:16:32;14.90;82.60
32522;DHT22;18963;51.504;5.316;2022-09-03T03:18:57;14.90;82.00
32522;DHT22;18963;51.504;5.316;2022-09-03T03:21:23;15.00;82.00
32522;DHT22;18963;51.504;5.316;2022-09-03T03:23:48;15.00;81.70
32522;DHT22;18963;51.504;5.316;2022-09-03T03:26:15;15.10;81.50
32522;DHT22;18963;51.504;5.316;2022-09-03T03:28:42;15.10;81.60
32522;DHT22;18963;51.504;5.316;2022-09-03T03:31:08;15.10;81.40
32522;DHT22;18963;51.504;5.316;2022-09-03T03:33:34;15.10;81.60
32522;DHT22;18963;51.504;5.316;2022-09-03T03:36:03;15.10;81.50
32522;DHT22;18963;51.504;5.316;2022-09-03T03:38:29;15.00;81.80
32522;DHT22;18963;51.504;5.316;2022-09-03T03:40:54;15.00;82.20
32522;DHT22;18963;51.504;5.316;2022-09-03T03:43:20;15.00;82.40
32522;DHT22;18963;51.504;5.316;2022-09-03T03:45:54;14.90;82.50
32522;DHT22;18963;51.504;5.316;2022-09-03T03:48:20;14.90;82.80
32522;DHT22;18963;51.504;5.316;2022-09-03T03:50:46;14.90;82.70
32522;DHT22;18963;51.504;5.316;2022-09-03T03:53:11;14.90;83.10
32522;DHT22;18963;51.504;5.316;2022-09-03T03:55:37;14.80;83.30
32522;DHT22;18963;51.504;5.316;2022-09-03T03:58:03;14.80;83.40
32522;DHT22;18963;51.504;5.316;2022-09-03T04:00:28;14.80;83.60
32522;DHT22;18963;51.504;5.316;2022-09-03T04:02:54;14.80;83.60
32522;DHT22;18963;51.504;5.316;2022-09-03T04:05:19;14.70;83.60
32522;DHT22;18963;51.504;5.316;2022-09-03T04:07:45;14.70;83.80
32522;DHT22;18963;51.504;5.316;2022-09-03T04:10:10;14.70;83.90
32522;DHT22;18963;51.504;5.316;2022-09-03T04:12:36;14.70;83.90
32522;DHT22;18963;51.504;5.316;2022-09-03T04:15:01;14.70;84.00
32522;DHT22;18963;51.504;5.316;2022-09-03T04:17:27;14.70;84.00
32522;DHT22;18963;51.504;5.316;2022-09-03T04:19:52;14.80;84.20
32522;DHT22;18963;51.504;5.316;2022-09-03T04:22:18;14.70;84.40
32522;DHT22;18963;51.504;5.316;2022-09-03T04:24:44;14.70;84.50
32522;DHT22;18963;51.504;5.316;2022-09-03T04:27:10;14.70;84.70
32522;DHT22;18963;51.504;5.316;2022-09-03T04:29:35;14.60;84.90
32522;DHT22;18963;51.504;5.316;2022-09-03T04:32:01;14.60;85.20
32522;DHT22;18963;51.504;5.316;2022-09-03T04:34:45;14.60;85.60
32522;DHT22;18963;51.504;5.316;2022-09-03T04:37:10;14.50;85.90
32522;DHT22;18963;51.504;5.316;2022-09-03T04:39:36;14.50;86.30
32522;DHT22;18963;51.504;5.316;2022-09-03T04:42:01;14.50;86.80
32522;DHT22;18963;51.504;5.316;2022-09-03T04:44:27;14.50;87.00
32522;DHT22;18963;51.504;5.316;2022-09-03T04:46:52;14.50;87.40
32522;DHT22;18963;51.504;5.316;2022-09-03T04:49:18;14.40;87.70
32522;DHT22;18963;51.504;5.316;2022-09-03T04:51:44;14.30;88.10
32522;DHT22;18963;51.504;5.316;2022-09-03T04:54:10;14.30;88.40
32522;DHT22;18963;51.504;5.316;2022-09-03T04:56:37;14.30;88.70
32522;DHT22;18963;51.504;5.316;2022-09-03T04:59:04;14.20;89.10
32522;DHT22;18963;51.504;5.316;2022-09-03T05:01:31;14.20;89.50
32522;DHT22;18963;51.504;5.316;2022-09-03T05:03:56;14.20;89.60
32522;DHT22;18963;51.504;5.316;2022-09-03T05:06:23;14.30;89.80
32522;DHT22;18963;51.504;5.316;2022-09-03T05:08:50;14.30;89.80
32522;DHT22;18963;51.504;5.316;2022-09-03T05:11:16;14.30;90.00
32522;DHT22;18963;51.504;5.316;2022-09-03T05:13:41;14.30;89.80
32522;DHT22;18963;51.504;5.316;2022-09-03T05:16:08;14.30;89.90
32522;DHT22;18963;51.504;5.316;2022-09-03T05:18:34;14.30;90.00
32522;DHT22;18963;51.504;5.316;2022-09-03T05:21:06;14.30;89.90
32522;DHT22;18963;51.504;5.316;2022-09-03T05:23:34;14.40;90.00
32522;DHT22;18963;51.504;5.316;2022-09-03T05:26:00;14.40;90.00
32522;DHT22;18963;51.504;5.316;2022-09-03T05:28:26;14.50;90.00
32522;DHT22;18963;51.504;5.316;2022-09-03T05:31:03;14.50;89.80
32522;DHT22;18963;51.504;5.316;2022-09-03T05:33:29;14.60;89.60
32522;DHT22;18963;51.504;5.316;2022-09-03T05:35:59;14.60;89.70
32522;DHT22;18963;51.504;5.316;2022-09-03T05:38:25;14.60;89.60
32522;DHT22;18963;51.504;5.316;2022-09-03T05:40:50;14.70;89.70
32522;DHT22;18963;51.504;5.316;2022-09-03T05:43:16;14.70;89.90
32522;DHT22;18963;51.504;5.316;2022-09-03T05:45:41;14.80;89.70
32522;DHT22;18963;51.504;5.316;2022-09-03T05:48:07;14.90;89.00
32522;DHT22;18963;51.504;5.316;2022-09-03T05:50:32;15.00;88.70
32522;DHT22;18963;51.504;5.316;2022-09-03T05:52:57;15.20;88.30
32522;DHT22;18963;51.504;5.316;2022-09-03T05:55:23;15.30;87.70
32522;DHT22;18963;51.504;5.316;2022-09-03T05:57:50;15.40;87.10
32522;DHT22;18963;51.504;5.316;2022-09-03T06:00:16;15.50;86.60
32522;DHT22;18963;51.504;5.316;2022-09-03T06:02:53;15.60;86.40
32522;DHT22;18963;51.504;5.316;2022-09-03T06:05:18;15.60;86.30
32522;DHT22;18963;51.504;5.316;2022-09-03T06:07:44;15.70;86.50
32522;DHT22;18963;51.504;5.316;2022-09-03T06:10:14;15.80;86.10
32522;DHT22;18963;51.504;5.316;2022-09-03T06:12:42;15.80;85.20
32522;DHT22;18963;51.504;5.316;2022-09-03T06:15:14;16.00;85.10
32522;DHT22;18963;51.504;5.316;2022-09-03T06:17:39;16.10;84.80
32522;DHT22;18963;51.504;5.316;2022-09-03T06:20:05;16.10;84.20
32522;DHT22;18963;51.504;5.316;2022-09-03T06:22:31;16.20;84.20
32522;DHT22;18963;51.504;5.316;2022-09-03T06:24:56;16.30;83.80
32522;DHT22;18963;51.504;5.316;2022-09-03T06:27:22;16.40;83.90
32522;DHT22;18963;51.504;5.316;2022-09-03T06:29:47;16.50;82.70
32522;DHT22;18963;51.504;5.316;2022-09-03T06:32:13;16.60;82.40
32522;DHT22;18963;51.504;5.316;2022-09-03T06:34:39;16.70;82.60
32522;DHT22;18963;51.504;5.316;2022-09-03T06:37:05;16.80;82.20
32522;DHT22;18963;51.504;5.316;2022-09-03T06:39:30;16.90;81.50
32522;DHT22;18963;51.504;5.316;2022-09-03T06:41:56;17.10;81.40
32522;DHT22;18963;51.504;5.316;2022-09-03T06:44:24;17.20;80.60
32522;DHT22;18963;51.504;5.316;2022-09-03T06:46:49;17.30;80.40
32522;DHT22;18963;51.504;5.316;2022-09-03T06:49:17;17.40;79.70
32522;DHT22;18963;51.504;5.316;2022-09-03T06:51:43;17.50;78.60
32522;DHT22;18963;51.504;5.316;2022-09-03T06:54:09;17.70;78.10
32522;DHT22;18963;51.504;5.316;2022-09-03T06:56:36;17.80;77.30
32522;DHT22;18963;51.504;5.316;2022-09-03T06:59:06;17.90;77.20
32522;DHT22;18963;51.504;5.316;2022-09-03T07:01:32;18.10;77.10
32522;DHT22;18963;51.504;5.316;2022-09-03T07:03:59;18.20;76.70
32522;DHT22;18963;51.504;5.316;2022-09-03T07:06:26;18.50;75.50
32522;DHT22;18963;51.504;5.316;2022-09-03T07:08:52;18.70;74.70
32522;DHT22;18963;51.504;5.316;2022-09-03T07:11:19;19.00;73.90
32522;DHT22;18963;51.504;5.316;2022-09-03T07:13:47;19.20;72.40
32522;DHT22;18963;51.504;5.316;2022-09-03T07:16:15;19.40;72.00
32522;DHT22;18963;51.504;5.316;2022-09-03T07:18:41;19.50;71.10
32522;DHT22;18963;51.504;5.316;2022-09-03T07:21:10;19.50;71.20
32522;DHT22;18963;51.504;5.316;2022-09-03T07:23:36;19.60;70.40
32522;DHT22;18963;51.504;5.316;2022-09-03T07:26:03;19.70;70.30
32522;DHT22;18963;51.504;5.316;2022-09-03T07:28:29;20.00;70.10
32522;DHT22;18963;51.504;5.316;2022-09-03T07:31:00;20.20;69.30
32522;DHT22;18963;51.504;5.316;2022-09-03T07:33:27;20.50;68.50
32522;DHT22;18963;51.504;5.316;2022-09-03T07:35:52;20.70;67.70
32522;DHT22;18963;51.504;5.316;2022-09-03T07:38:18;20.90;66.80
32522;DHT22;18963;51.504;5.316;2022-09-03T07:40:44;21.20;66.60
32522;DHT22;18963;51.504;5.316;2022-09-03T07:43:12;21.50;66.30
32522;DHT22;18963;51.504;5.316;2022-09-03T07:45:38;21.80;64.70
32522;DHT22;18963;51.504;5.316;2022-09-03T07:48:03;22.00;63.10
32522;DHT22;18963;51.504;5.316;2022-09-03T07:50:29;22.20;61.50
32522;DHT22;18963;51.504;5.316;2022-09-03T07:52:58;22.30;60.70
32522;DHT22;18963;51.504;5.316;2022-09-03T07:55:24;22.40;60.40
32522;DHT22;18963;51.504;5.316;2022-09-03T07:57:54;22.50;59.90
32522;DHT22;18963;51.504;5.316;2022-09-03T08:00:19;22.50;60.20
32522;DHT22;18963;51.504;5.316;2022-09-03T08:02:45;22.70;60.40
32522;DHT22;18963;51.504;5.316;2022-09-03T08:05:10;23.00;59.10
32522;DHT22;18963;51.504;5.316;2022-09-03T08:07:36;23.20;59.40
32522;DHT22;18963;51.504;5.316;2022-09-03T08:10:01;23.40;58.60
32522;DHT22;18963;51.504;5.316;2022-09-03T08:12:27;23.60;59.00
32522;DHT22;18963;51.504;5.316;2022-09-03T08:14:52;23.70;57.80
32522;DHT22;18963;51.504;5.316;2022-09-03T08:17:17;23.80;58.00
32522;DHT22;18963;51.504;5.316;2022-09-03T08:19:43;24.20;58.00
32522;DHT22;18963;51.504;5.316;2022-09-03T08:22:10;24.60;57.20
32522;DHT22;18963;51.504;5.316;2022-09-03T08:24:36;24.80;56.50
32522;DHT22;18963;51.504;5.316;2022-09-03T08:27:01;25.10;56.10
32522;DHT22;18963;51.504;5.316;2022-09-03T08:29:27;25.40;56.10
32522;DHT22;18963;51.504;5.316;2022-09-03T08:31:53;25.80;55.20
32522;DHT22;18963;51.504;5.316;2022-09-03T08:34:18;26.10;54.40
32522;DHT22;18963;51.504;5.316;2022-09-03T08:36:44;26.40;53.60
32522;DHT22;18963;51.504;5.316;2022-09-03T08:39:11;26.50;53.30
32522;DHT22;18963;51.504;5.316;2022-09-03T08:46:59;26.60;52.50
32522;DHT22;18963;51.504;5.316;2022-09-03T08:52:05;26.90;51.80
32522;DHT22;18963;51.504;5.316;2022-09-03T08:54:32;27.00;52.00
32522;DHT22;18963;51.504;5.316;2022-09-03T08:56:59;27.20;51.60
32522;DHT22;18963;51.504;5.316;2022-09-03T08:59:25;27.40;51.00
32522;DHT22;18963;51.504;5.316;2022-09-03T09:04:52;27.70;50.70
32522;DHT22;18963;51.504;5.316;2022-09-03T09:07:26;27.90;50.00
32522;DHT22;18963;51.504;5.316;2022-09-03T09:10:10;28.10;50.10
32522;DHT22;18963;51.504;5.316;2022-09-03T09:22:56;28.60;48.10
32522;DHT22;18963;51.504;5.316;2022-09-03T09:25:23;28.80;48.40
32522;DHT22;18963;51.504;5.316;2022-09-03T09:30:16;29.50;47.00
32522;DHT22;18963;51.504;5.316;2022-09-03T09:32:42;29.80;46.50
32522;DHT22;18963;51.504;5.316;2022-09-03T09:35:10;30.20;46.50
32522;DHT22;18963;51.504;5.316;2022-09-03T09:37:46;30.30;45.90
32522;DHT22;18963;51.504;5.316;2022-09-03T09:40:20;30.30;45.40
32522;DHT22;18963;51.504;5.316;2022-09-03T09:42:46;30.30;45.20
32522;DHT22;18963;51.504;5.316;2022-09-03T09:45:12;30.60;44.90
32522;DHT22;18963;51.504;5.316;2022-09-03T09:47:38;30.80;44.20
32522;DHT22;18963;51.504;5.316;2022-09-03T09:50:14;30.70;44.30
32522;DHT22;18963;51.504;5.316;2022-09-03T09:52:40;30.80;44.20
32522;DHT22;18963;51.504;5.316;2022-09-03T09:55:17;30.60;44.20
32522;DHT22;18963;51.504;5.316;2022-09-03T09:57:43;30.80;44.00
32522;DHT22;18963;51.504;5.316;2022-09-03T10:00:10;30.90;43.80
32522;DHT22;18963;51.504;5.316;2022-09-03T10:02:39;31.00;44.40
32522;DHT22;18963;51.504;5.316;2022-09-03T10:05:13;31.20;43.50
32522;DHT22;18963;51.504;5.316;2022-09-03T10:07:39;31.40;43.60
32522;DHT22;18963;51.504;5.316;2022-09-03T10:15:02;31.30;42.50
32522;DHT22;18963;51.504;5.316;2022-09-03T10:17:31;31.20;43.20
32522;DHT22;18963;51.504;5.316;2022-09-03T10:20:03;31.60;42.60
32522;DHT22;18963;51.504;5.316;2022-09-03T10:22:54;31.80;42.40
32522;DHT22;18963;51.504;5.316;2022-09-03T10:25:20;32.10;42.40
32522;DHT22;18963;51.504;5.316;2022-09-03T10:27:45;32.50;42.00
32522;DHT22;18963;51.504;5.316;2022-09-03T10:30:11;32.30;41.90
32522;DHT22;18963;51.504;5.316;2022-09-03T10:33:02;32.50;41.20
32522;DHT22;18963;51.504;5.316;2022-09-03T10:35:30;32.40;41.60
32522;DHT22;18963;51.504;5.316;2022-09-03T10:45:25;32.90;40.60
32522;DHT22;18963;51.504;5.316;2022-09-03T10:50:43;32.90;40.60
32522;DHT22;18963;51.504;5.316;2022-09-03T10:56:00;33.10;40.70
32522;DHT22;18963;51.504;5.316;2022-09-03T11:01:03;33.40;40.70
32522;DHT22;18963;51.504;5.316;2022-09-03T11:03:52;33.30;40.00
32522;DHT22;18963;51.504;5.316;2022-09-03T11:06:25;33.10;40.10
32522;DHT22;18963;51.504;5.316;2022-09-03T11:08:54;33.20;39.60
32522;DHT22;18963;51.504;5.316;2022-09-03T11:11:31;33.50;40.40
32522;DHT22;18963;51.504;5.316;2022-09-03T11:17:06;33.60;39.20
32522;DHT22;18963;51.504;5.316;2022-09-03T11:19:13;33.60;39.30
32522;DHT22;18963;51.504;5.316;2022-09-03T11:21:41;33.70;39.90
32522;DHT22;18963;51.504;5.316;2022-09-03T11:26:41;33.20;39.20
32522;DHT22;18963;51.504;5.316;2022-09-03T11:34:11;33.50;40.00
32522;DHT22;18963;51.504;5.316;2022-09-03T11:36:38;33.60;39.40
32522;DHT22;18963;51.504;5.316;2022-09-03T11:39:21;33.60;39.60
32522;DHT22;18963;51.504;5.316;2022-09-03T11:41:57;33.80;39.40
32522;DHT22;18963;51.504;5.316;2022-09-03T11:44:23;33.90;38.10
32522;DHT22;18963;51.504;5.316;2022-09-03T11:46:56;34.30;38.20
32522;DHT22;18963;51.504;5.316;2022-09-03T11:49:29;34.80;38.40
32522;DHT22;18963;51.504;5.316;2022-09-03T11:52:01;34.80;37.40
32522;DHT22;18963;51.504;5.316;2022-09-03T11:54:30;34.60;37.50
32522;DHT22;18963;51.504;5.316;2022-09-03T11:57:06;34.70;37.30
32522;DHT22;18963;51.504;5.316;2022-09-03T11:59:35;34.60;37.30
32522;DHT22;18963;51.504;5.316;2022-09-03T12:12:31;37.10;36.10
32522;DHT22;18963;51.504;5.316;2022-09-03T12:15:09;36.70;36.40
32522;DHT22;18963;51.504;5.316;2022-09-03T12:20:33;36.30;35.80
32522;DHT22;18963;51.504;5.316;2022-09-03T12:22:58;35.90;35.60
32522;DHT22;18963;51.504;5.316;2022-09-03T12:25:27;36.00;35.70
32522;DHT22;18963;51.504;5.316;2022-09-03T12:27:53;35.60;36.40
32522;DHT22;18963;51.504;5.316;2022-09-03T12:30:21;35.40;36.50
32522;DHT22;18963;51.504;5.316;2022-09-03T12:32:47;34.50;37.50
32522;DHT22;18963;51.504;5.316;2022-09-03T12:37:41;32.80;38.50
32522;DHT22;18963;51.504;5.316;2022-09-03T12:40:15;32.10;39.00
32522;DHT22;18963;51.504;5.316;2022-09-03T12:42:46;31.90;39.40
32522;DHT22;18963;51.504;5.316;2022-09-03T12:45:12;31.70;39.60
32522;DHT22;18963;51.504;5.316;2022-09-03T12:47:40;31.40;40.10
32522;DHT22;18963;51.504;5.316;2022-09-03T12:50:17;31.50;39.90
32522;DHT22;18963;51.504;5.316;2022-09-03T12:52:51;31.40;40.20
32522;DHT22;18963;51.504;5.316;2022-09-03T12:55:28;31.10;39.50
32522;DHT22;18963;51.504;5.316;2022-09-03T13:00:25;30.50;40.20
32522;DHT22;18963;51.504;5.316;2022-09-03T13:02:59;30.20;40.20
32522;DHT22;18963;51.504;5.316;2022-09-03T13:05:39;30.10;40.60
32522;DHT22;18963;51.504;5.316;2022-09-03T13:08:07;30.00;40.70
32522;DHT22;18963;51.504;5.316;2022-09-03T13:10:40;30.00;41.60
32522;DHT22;18963;51.504;5.316;2022-09-03T13:13:18;29.90;41.20
32522;DHT22;18963;51.504;5.316;2022-09-03T13:21:49;30.10;40.70
32522;DHT22;18963;51.504;5.316;2022-09-03T13:27:38;29.90;41.00
32522;DHT22;18963;51.504;5.316;2022-09-03T13:30:04;29.50;41.60
32522;DHT22;18963;51.504;5.316;2022-09-03T13:35:25;29.00;42.80
32522;DHT22;18963;51.504;5.316;2022-09-03T13:37:54;28.90;43.10
32522;DHT22;18963;51.504;5.316;2022-09-03T13:40:23;28.70;43.10
32522;DHT22;18963;51.504;5.316;2022-09-03T13:42:51;28.60;43.40
32522;DHT22;18963;51.504;5.316;2022-09-03T13:47:58;28.50;42.30
32522;DHT22;18963;51.504;5.316;2022-09-03T13:50:53;28.30;42.60
32522;DHT22;18963;51.504;5.316;2022-09-03T13:53:39;28.20;42.70
32522;DHT22;18963;51.504;5.316;2022-09-03T13:56:12;28.10;43.40
32522;DHT22;18963;51.504;5.316;2022-09-03T13:58:41;27.90;43.10
32522;DHT22;18963;51.504;5.316;2022-09-03T14:01:17;27.90;43.20
32522;DHT22;18963;51.504;5.316;2022-09-03T14:03:48;27.70;42.90
32522;DHT22;18963;51.504;5.316;2022-09-03T14:06:19;27.60;43.20
32522;DHT22;18963;51.504;5.316;2022-09-03T14:16:23;27.10;45.00
32522;DHT22;18963;51.504;5.316;2022-09-03T14:24:01;27.20;45.00
32522;DHT22;18963;51.504;5.316;2022-09-03T14:26:35;27.20;44.00
32522;DHT22;18963;51.504;5.316;2022-09-03T14:29:23;27.10;44.10
32522;DHT22;18963;51.504;5.316;2022-09-03T14:37:16;27.10;44.20
32522;DHT22;18963;51.504;5.316;2022-09-03T14:45:17;27.00;44.80
32522;DHT22;18963;51.504;5.316;2022-09-03T15:06:27;26.80;45.60
32522;DHT22;18963;51.504;5.316;2022-09-03T15:12:02;26.80;44.90
32522;DHT22;18963;51.504;5.316;2022-09-03T15:14:49;26.80;46.00
32522;DHT22;18963;51.504;5.316;2022-09-03T15:17:20;26.80;45.50
32522;DHT22;18963;51.504;5.316;2022-09-03T15:20:00;26.80;45.80
32522;DHT22;18963;51.504;5.316;2022-09-03T15:30:14;26.90;46.50
32522;DHT22;18963;51.504;5.316;2022-09-03T15:37:58;26.90;46.20
32522;DHT22;18963;51.504;5.316;2022-09-03T15:40:30;26.80;46.60
32522;DHT22;18963;51.504;5.316;2022-09-03T15:43:03;26.80;46.50
32522;DHT22;18963;51.504;5.316;2022-09-03T15:45:34;26.80;46.30
32522;DHT22;18963;51.504;5.316;2022-09-03T15:48:09;26.80;47.10
32522;DHT22;18963;51.504;5.316;2022-09-03T15:50:46;26.70;46.90
32522;DHT22;18963;51.504;5.316;2022-09-03T15:55:42;26.80;47.30
32522;DHT22;18963;51.504;5.316;2022-09-03T15:58:26;26.70;46.60
32522;DHT22;18963;51.504;5.316;2022-09-03T16:00:59;26.80;46.90
32522;DHT22;18963;51.504;5.316;2022-09-03T16:14:33;26.50;46.80
32522;DHT22;18963;51.504;5.316;2022-09-03T16:17:12;26.40;46.60
32522;DHT22;18963;51.504;5.316;2022-09-03T16:22:06;26.40;47.80
32522;DHT22;18963;51.504;5.316;2022-09-03T16:24:40;26.30;47.90
32522;DHT22;18963;51.504;5.316;2022-09-03T16:27:24;26.20;47.70
32522;DHT22;18963;51.504;5.316;2022-09-03T16:29:56;26.10;47.90
32522;DHT22;18963;51.504;5.316;2022-09-03T16:32:26;26.10;48.20
32522;DHT22;18963;51.504;5.316;2022-09-03T16:37:32;26.10;49.10
32522;DHT22;18963;51.504;5.316;2022-09-03T16:45:08;26.10;50.90
32522;DHT22;18963;51.504;5.316;2022-09-03T16:58:01;26.10;51.40
32522;DHT22;18963;51.504;5.316;2022-09-03T17:00:45;26.10;51.70
32522;DHT22;18963;51.504;5.316;2022-09-03T17:08:22;26.00;51.40
32522;DHT22;18963;51.504;5.316;2022-09-03T17:21:10;25.70;52.40
32522;DHT22;18963;51.504;5.316;2022-09-03T17:26:06;25.50;52.80
32522;DHT22;18963;51.504;5.316;2022-09-03T17:34:23;25.20;53.40
32522;DHT22;18963;51.504;5.316;2022-09-03T17:36:29;25.10;53.80
32522;DHT22;18963;51.504;5.316;2022-09-03T17:39:12;24.90;54.20
32522;DHT22;18963;51.504;5.316;2022-09-03T17:49:41;24.40;56.00
32522;DHT22;18963;51.504;5.316;2022-09-03T17:52:19;24.30;56.70
32522;DHT22;18963;51.504;5.316;2022-09-03T17:54:50;24.20;56.60
32522;DHT22;18963;51.504;5.316;2022-09-03T17:57:20;24.00;57.00
32522;DHT22;18963;51.504;5.316;2022-09-03T18:00:00;23.90;57.50
32522;DHT22;18963;51.504;5.316;2022-09-03T18:04:53;23.70;57.80
32522;DHT22;18963;51.504;5.316;2022-09-03T18:07:22;23.60;57.80
32522;DHT22;18963;51.504;5.316;2022-09-03T18:12:55;23.40;58.60
32522;DHT22;18963;51.504;5.316;2022-09-03T18:18:06;23.10;59.80
32522;DHT22;18963;51.504;5.316;2022-09-03T18:20:39;22.90;60.00
32522;DHT22;18963;51.504;5.316;2022-09-03T18:26:15;22.70;61.50
32522;DHT22;18963;51.504;5.316;2022-09-03T18:29:21;22.50;62.10
32522;DHT22;18963;51.504;5.316;2022-09-03T18:32:07;22.40;63.40
32522;DHT22;18963;51.504;5.316;2022-09-03T18:34:51;22.30;64.50
32522;DHT22;18963;51.504;5.316;2022-09-03T18:37:36;22.20;65.20
32522;DHT22;18963;51.504;5.316;2022-09-03T18:40:22;22.10;66.10
32522;DHT22;18963;51.504;5.316;2022-09-03T18:43:29;22.10;66.90
32522;DHT22;18963;51.504;5.316;2022-09-03T18:49:17;22.00;68.10
32522;DHT22;18963;51.504;5.316;2022-09-03T19:00:53;21.80;69.30
32522;DHT22;18963;51.504;5.316;2022-09-03T19:04:02;21.80;69.80
32522;DHT22;18963;51.504;5.316;2022-09-03T19:10:18;21.60;71.30
32522;DHT22;18963;51.504;5.316;2022-09-03T19:16:04;21.50;72.50
32522;DHT22;18963;51.504;5.316;2022-09-03T19:19:03;21.40;73.50
32522;DHT22;18963;51.504;5.316;2022-09-03T19:21:58;21.30;74.40
32522;DHT22;18963;51.504;5.316;2022-09-03T19:24:47;21.20;75.40
32522;DHT22;18963;51.504;5.316;2022-09-03T19:27:47;21.00;76.60
32522;DHT22;18963;51.504;5.316;2022-09-03T19:30:43;21.00;77.70
32522;DHT22;18963;51.504;5.316;2022-09-03T19:42:21;20.60;82.80
32522;DHT22;18963;51.504;5.316;2022-09-03T19:45:28;20.60;84.70
32522;DHT22;18963;51.504;5.316;2022-09-03T19:48:22;20.50;85.90
32522;DHT22;18963;51.504;5.316;2022-09-03T19:51:18;20.40;86.80
32522;DHT22;18963;51.504;5.316;2022-09-03T19:54:04;20.30;88.60
32522;DHT22;18963;51.504;5.316;2022-09-03T19:56:49;20.20;90.20
32522;DHT22;18963;51.504;5.316;2022-09-03T19:59:35;20.10;91.10
32522;DHT22;18963;51.504;5.316;2022-09-03T20:02:21;20.10;91.70
32522;DHT22;18963;51.504;5.316;2022-09-03T20:05:06;20.10;92.80
32522;DHT22;18963;51.504;5.316;2022-09-03T20:07:53;20.00;93.30
32522;DHT22;18963;51.504;5.316;2022-09-03T20:10:38;20.00;93.90
32522;DHT22;18963;51.504;5.316;2022-09-03T20:13:15;19.90;94.30
32522;DHT22;18963;51.504;5.316;2022-09-03T20:15:44;19.90;94.90
32522;DHT22;18963;51.504;5.316;2022-09-03T20:18:58;19.80;95.50
32522;DHT22;18963;51.504;5.316;2022-09-03T20:31:18;19.50;99.20
32522;DHT22;18963;51.504;5.316;2022-09-03T20:38:53;19.40;99.90
32522;DHT22;18963;51.504;5.316;2022-09-03T20:44:19;19.40;99.90
32522;DHT22;18963;51.504;5.316;2022-09-03T20:49:39;19.40;99.90
32522;DHT22;18963;51.504;5.316;2022-09-03T20:52:13;19.40;99.90
32522;DHT22;18963;51.504;5.316;2022-09-03T20:57:14;19.40;99.90
32522;DHT22;18963;51.504;5.316;2022-09-03T21:04:51;19.30;99.90
32522;DHT22;18963;51.504;5.316;2022-09-03T21:07:44;19.30;99.90
32522;DHT22;18963;51.504;5.316;2022-09-03T21:13:01;19.20;99.90
32522;DHT22;18963;51.504;5.316;2022-09-03T21:15:47;19.20;99.90
32522;DHT22;18963;51.504;5.316;2022-09-03T21:18:35;19.10;99.90